sensor_id;sensor_type;location;lat;lon;timestamp;P1;durP1;ratioP1;P2;durP2;ratioP2
8464;SDS011;72380;52.680;13.606;2023-10-31T00:01:42;3.40;;;1.97;;
8464;SDS011;72380;52.680;13.606;2023-10-31T00:04:10;3.17;;;2.17;;
8464;SDS011;72380;52.680;13.606;2023-10-31T00:06:37;5.73;;;1.80;;
8464;SDS011;72380;52.680;13.606;2023-10-31T00:09:06;3.00;;;1.87;;
8464;SDS011;72380;52.680;13.606;2023-10-31T00:11:33;4.00;;;1.50;;
8464;SDS011;72380;52.680;13.606;2023-10-31T00:14:01;3.23;;;1.67;;
8464;SDS011;72380;52.680;13.606;2023-10-31T00:16:28;8.93;;;2.07;;
8464;SDS011;72380;52.680;13.606;2023-10-31T00:18:55;3.07;;;2.10;;
8464;SDS011;72380;52.680;13.606;2023-10-31T00:21:22;1.87;;;1.70;;
8464;SDS011;72380;52.680;13.606;2023-10-31T00:23:50;3.03;;;1.70;;
8464;SDS011;72380;52.680;13.606;2023-10-31T00:26:18;2.50;;;2.10;;
8464;SDS011;72380;52.680;13.606;2023-10-31T00:28:46;5.57;;;2.03;;
8464;SDS011;72380;52.680;13.606;2023-10-31T00:31:13;3.27;;;2.17;;
8464;SDS011;72380;52.680;13.606;2023-10-31T00:33:40;3.90;;;2.47;;
8464;SDS011;72380;52.680;13.606;2023-10-31T00:36:08;5.67;;;2.53;;
8464;SDS011;72380;52.680;13.606;2023-10-31T00:38:35;2.27;;;2.07;;
8464;SDS011;72380;52.680;13.606;2023-10-31T00:41:02;2.87;;;2.33;;
8464;SDS011;72380;52.680;13.606;2023-10-31T00:43:31;5.37;;;2.30;;
8464;SDS011;72380;52.680;13.606;2023-10-31T00:45:58;3.17;;;2.30;;
8464;SDS011;72380;52.680;13.606;2023-10-31T00:48:25;6.37;;;2.33;;
8464;SDS011;72380;52.680;13.606;2023-10-31T00:50:53;4.30;;;2.43;;
8464;SDS011;72380;52.680;13.606;2023-10-31T00:53:20;5.20;;;2.43;;
8464;SDS011;72380;52.680;13.606;2023-10-31T00:55:47;5.13;;;2.97;;
8464;SDS011;72380;52.680;13.606;2023-10-31T00:58:15;5.90;;;3.37;;
8464;SDS011;72380;52.680;13.606;2023-10-31T01:00:43;4.60;;;2.33;;
8464;SDS011;72380;52.680;13.606;2023-10-31T01:03:10;5.43;;;2.10;;
8464;SDS011;72380;52.680;13.606;2023-10-31T01:05:38;5.03;;;2.93;;
8464;SDS011;72380;52.680;13.606;2023-10-31T01:08:05;4.83;;;2.70;;
8464;SDS011;72380;52.680;13.606;2023-10-31T01:10:32;2.63;;;2.03;;
8464;SDS011;72380;52.680;13.606;2023-10-31T01:12:59;5.80;;;3.77;;
8464;SDS011;72380;52.680;13.606;2023-10-31T01:15:27;8.33;;;2.37;;
8464;SDS011;72380;52.680;13.606;2023-10-31T01:17:55;4.67;;;3.00;;
8464;SDS011;72380;52.680;13.606;2023-10-31T01:20:23;4.17;;;2.57;;
8464;SDS011;72380;52.680;13.606;2023-10-31T01:22:51;8.20;;;2.33;;
8464;SDS011;72380;52.680;13.606;2023-10-31T01:25:18;3.23;;;2.37;;
8464;SDS011;72380;52.680;13.606;2023-10-31T01:27:45;5.50;;;2.57;;
8464;SDS011;72380;52.680;13.606;2023-10-31T01:30:13;4.67;;;3.10;;
8464;SDS011;72380;52.680;13.606;2023-10-31T01:32:40;7.90;;;3.00;;
8464;SDS011;72380;52.680;13.606;2023-10-31T01:35:09;3.90;;;2.63;;
8464;SDS011;72380;52.680;13.606;2023-10-31T01:37:36;7.57;;;2.80;;
8464;SDS011;72380;52.680;13.606;2023-10-31T01:40:04;3.53;;;2.60;;
8464;SDS011;72380;52.680;13.606;2023-10-31T01:42:32;38.83;;;3.13;;
8464;SDS011;72380;52.680;13.606;2023-10-31T01:45:00;5.27;;;2.23;;
8464;SDS011;72380;52.680;13.606;2023-10-31T01:47:27;3.90;;;2.43;;
8464;SDS011;72380;52.680;13.606;2023-10-31T01:49:54;4.50;;;2.87;;
8464;SDS011;72380;52.680;13.606;2023-10-31T01:52:24;6.90;;;2.80;;
8464;SDS011;72380;52.680;13.606;2023-10-31T01:54:51;6.37;;;2.90;;
8464;SDS011;72380;52.680;13.606;2023-10-31T01:57:19;8.07;;;2.77;;
8464;SDS011;72380;52.680;13.606;2023-10-31T01:59:48;10.60;;;3.30;;
8464;SDS011;72380;52.680;13.606;2023-10-31T02:02:15;5.37;;;2.93;;
8464;SDS011;72380;52.680;13.606;2023-10-31T02:04:43;5.10;;;2.30;;
8464;SDS011;72380;52.680;13.606;2023-10-31T02:07:11;2.80;;;2.60;;
8464;SDS011;72380;52.680;13.606;2023-10-31T02:09:39;3.13;;;2.83;;
8464;SDS011;72380;52.680;13.606;2023-10-31T02:12:07;4.23;;;2.33;;
8464;SDS011;72380;52.680;13.606;2023-10-31T02:14:34;7.23;;;3.10;;
8464;SDS011;72380;52.680;13.606;2023-10-31T02:17:02;4.20;;;2.43;;
8464;SDS011;72380;52.680;13.606;2023-10-31T02:19:29;4.37;;;2.77;;
8464;SDS011;72380;52.680;13.606;2023-10-31T02:21:58;4.57;;;3.27;;
8464;SDS011;72380;52.680;13.606;2023-10-31T02:24:25;3.60;;;2.63;;
8464;SDS011;72380;52.680;13.606;2023-10-31T02:26:53;3.77;;;2.67;;
8464;SDS011;72380;52.680;13.606;2023-10-31T02:29:20;8.27;;;3.07;;
8464;SDS011;72380;52.680;13.606;2023-10-31T02:31:48;5.60;;;2.97;;
8464;SDS011;72380;52.680;13.606;2023-10-31T02:34:15;4.53;;;3.13;;
8464;SDS011;72380;52.680;13.606;2023-10-31T02:36:42;2.53;;;2.17;;
8464;SDS011;72380;52.680;13.606;2023-10-31T02:39:11;4.23;;;2.63;;
8464;SDS011;72380;52.680;13.606;2023-10-31T02:41:38;7.27;;;2.73;;
8464;SDS011;72380;52.680;13.606;2023-10-31T02:44:05;5.00;;;2.70;;
8464;SDS011;72380;52.680;13.606;2023-10-31T02:46:32;4.60;;;2.40;;
8464;SDS011;72380;52.680;13.606;2023-10-31T02:49:00;5.60;;;3.10;;
8464;SDS011;72380;52.680;13.606;2023-10-31T02:51:27;6.27;;;3.10;;
8464;SDS011;72380;52.680;13.606;2023-10-31T02:53:54;3.83;;;2.60;;
8464;SDS011;72380;52.680;13.606;2023-10-31T02:56:23;6.43;;;2.90;;
8464;SDS011;72380;52.680;13.606;2023-10-31T02:58:51;7.67;;;2.77;;
8464;SDS011;72380;52.680;13.606;2023-10-31T03:01:18;5.60;;;2.93;;
8464;SDS011;72380;52.680;13.606;2023-10-31T03:03:46;4.23;;;2.57;;
8464;SDS011;72380;52.680;13.606;2023-10-31T03:06:13;6.23;;;3.70;;
8464;SDS011;72380;52.680;13.606;2023-10-31T03:08:40;6.27;;;3.00;;
8464;SDS011;72380;52.680;13.606;2023-10-31T03:11:08;6.50;;;3.50;;
8464;SDS011;72380;52.680;13.606;2023-10-31T03:13:36;5.70;;;3.53;;
8464;SDS011;72380;52.680;13.606;2023-10-31T03:16:04;8.57;;;2.60;;
8464;SDS011;72380;52.680;13.606;2023-10-31T03:18:31;4.00;;;2.87;;
8464;SDS011;72380;52.680;13.606;2023-10-31T03:20:58;6.10;;;4.13;;
8464;SDS011;72380;52.680;13.606;2023-10-31T03:23:25;6.80;;;3.07;;
8464;SDS011;72380;52.680;13.606;2023-10-31T03:25:53;3.67;;;2.60;;
8464;SDS011;72380;52.680;13.606;2023-10-31T03:28:20;5.30;;;3.00;;
8464;SDS011;72380;52.680;13.606;2023-10-31T03:30:50;4.43;;;3.27;;
8464;SDS011;72380;52.680;13.606;2023-10-31T03:33:18;7.60;;;3.47;;
8464;SDS011;72380;52.680;13.606;2023-10-31T03:35:45;4.33;;;2.67;;
8464;SDS011;72380;52.680;13.606;2023-10-31T03:38:13;3.73;;;2.27;;
8464;SDS011;72380;52.680;13.606;2023-10-31T03:40:40;5.27;;;2.70;;
8464;SDS011;72380;52.680;13.606;2023-10-31T03:43:07;5.47;;;3.60;;
8464;SDS011;72380;52.680;13.606;2023-10-31T03:45:35;8.53;;;4.57;;
8464;SDS011;72380;52.680;13.606;2023-10-31T03:48:04;5.47;;;3.43;;
8464;SDS011;72380;52.680;13.606;2023-10-31T03:50:31;5.10;;;2.97;;
8464;SDS011;72380;52.680;13.606;2023-10-31T03:52:58;5.97;;;3.00;;
8464;SDS011;72380;52.680;13.606;2023-10-31T03:55:25;5.60;;;3.63;;
8464;SDS011;72380;52.680;13.606;2023-10-31T03:57:53;5.47;;;2.80;;
8464;SDS011;72380;52.680;13.606;2023-10-31T04:00:20;4.40;;;2.87;;
8464;SDS011;72380;52.680;13.606;2023-10-31T04:02:47;5.43;;;2.80;;
8464;SDS011;72380;52.680;13.606;2023-10-31T04:05:16;4.13;;;2.47;;
8464;SDS011;72380;52.680;13.606;2023-10-31T04:07:43;8.93;;;3.47;;
8464;SDS011;72380;52.680;13.606;2023-10-31T04:10:11;7.40;;;3.40;;
8464;SDS011;72380;52.680;13.606;2023-10-31T04:12:38;3.57;;;2.67;;
8464;SDS011;72380;52.680;13.606;2023-10-31T04:15:06;6.40;;;2.93;;
8464;SDS011;72380;52.680;13.606;2023-10-31T04:17:34;5.43;;;3.60;;
8464;SDS011;72380;52.680;13.606;2023-10-31T04:20:01;5.33;;;2.77;;
8464;SDS011;72380;52.680;13.606;2023-10-31T04:22:30;3.20;;;2.27;;
8464;SDS011;72380;52.680;13.606;2023-10-31T04:24:57;5.53;;;2.80;;
8464;SDS011;72380;52.680;13.606;2023-10-31T04:27:25;3.90;;;2.77;;
8464;SDS011;72380;52.680;13.606;2023-10-31T04:29:52;4.97;;;3.33;;
8464;SDS011;72380;52.680;13.606;2023-10-31T04:32:19;5.17;;;3.03;;
8464;SDS011;72380;52.680;13.606;2023-10-31T04:34:47;3.27;;;2.73;;
8464;SDS011;72380;52.680;13.606;2023-10-31T04:37:14;4.50;;;2.80;;
8464;SDS011;72380;52.680;13.606;2023-10-31T04:39:42;8.20;;;2.67;;
8464;SDS011;72380;52.680;13.606;2023-10-31T04:42:10;3.67;;;3.23;;
8464;SDS011;72380;52.680;13.606;2023-10-31T04:44:37;4.97;;;2.97;;
8464;SDS011;72380;52.680;13.606;2023-10-31T04:47:04;4.37;;;2.83;;
8464;SDS011;72380;52.680;13.606;2023-10-31T04:49:34;5.37;;;3.70;;
8464;SDS011;72380;52.680;13.606;2023-10-31T04:52:02;4.40;;;3.50;;
8464;SDS011;72380;52.680;13.606;2023-10-31T04:54:29;6.53;;;3.30;;
8464;SDS011;72380;52.680;13.606;2023-10-31T04:56:57;4.07;;;3.37;;
8464;SDS011;72380;52.680;13.606;2023-10-31T04:59:25;12.07;;;3.60;;
8464;SDS011;72380;52.680;13.606;2023-10-31T05:01:52;6.20;;;3.07;;
8464;SDS011;72380;52.680;13.606;2023-10-31T05:04:20;5.40;;;3.93;;
8464;SDS011;72380;52.680;13.606;2023-10-31T05:06:47;7.03;;;3.20;;
8464;SDS011;72380;52.680;13.606;2023-10-31T05:09:15;4.53;;;2.60;;
8464;SDS011;72380;52.680;13.606;2023-10-31T05:11:43;8.37;;;3.03;;
8464;SDS011;72380;52.680;13.606;2023-10-31T05:14:12;5.97;;;3.30;;
8464;SDS011;72380;52.680;13.606;2023-10-31T05:16:39;4.67;;;3.20;;
8464;SDS011;72380;52.680;13.606;2023-10-31T05:19:07;6.80;;;3.43;;
8464;SDS011;72380;52.680;13.606;2023-10-31T05:21:34;8.23;;;2.77;;
8464;SDS011;72380;52.680;13.606;2023-10-31T05:24:01;8.93;;;3.20;;
8464;SDS011;72380;52.680;13.606;2023-10-31T05:26:29;7.10;;;3.13;;
8464;SDS011;72380;52.680;13.606;2023-10-31T05:28:56;4.53;;;3.70;;
8464;SDS011;72380;52.680;13.606;2023-10-31T05:31:25;5.27;;;2.67;;
8464;SDS011;72380;52.680;13.606;2023-10-31T05:33:52;4.13;;;2.80;;
8464;SDS011;72380;52.680;13.606;2023-10-31T05:36:19;6.23;;;4.50;;
8464;SDS011;72380;52.680;13.606;2023-10-31T05:38:47;4.20;;;2.70;;
8464;SDS011;72380;52.680;13.606;2023-10-31T05:41:14;4.63;;;2.77;;
8464;SDS011;72380;52.680;13.606;2023-10-31T05:43:41;4.13;;;3.07;;
8464;SDS011;72380;52.680;13.606;2023-10-31T05:46:09;3.90;;;2.77;;
8464;SDS011;72380;52.680;13.606;2023-10-31T05:48:39;5.77;;;3.10;;
8464;SDS011;72380;52.680;13.606;2023-10-31T05:51:10;14.93;;;2.87;;
8464;SDS011;72380;52.680;13.606;2023-10-31T05:53:39;7.23;;;3.07;;
8464;SDS011;72380;52.680;13.606;2023-10-31T05:56:07;6.80;;;3.67;;
8464;SDS011;72380;52.680;13.606;2023-10-31T05:58:34;3.50;;;2.53;;
8464;SDS011;72380;52.680;13.606;2023-10-31T06:01:02;4.03;;;2.53;;
8464;SDS011;72380;52.680;13.606;2023-10-31T06:03:29;5.07;;;4.10;;
8464;SDS011;72380;52.680;13.606;2023-10-31T06:05:58;3.80;;;2.50;;
8464;SDS011;72380;52.680;13.606;2023-10-31T06:08:24;3.37;;;2.60;;
8464;SDS011;72380;52.680;13.606;2023-10-31T06:10:54;3.23;;;2.60;;
8464;SDS011;72380;52.680;13.606;2023-10-31T06:13:21;2.93;;;2.40;;
8464;SDS011;72380;52.680;13.606;2023-10-31T06:15:51;3.23;;;2.47;;
8464;SDS011;72380;52.680;13.606;2023-10-31T06:18:18;3.13;;;2.20;;
8464;SDS011;72380;52.680;13.606;2023-10-31T06:20:45;3.70;;;2.37;;
8464;SDS011;72380;52.680;13.606;2023-10-31T06:23:14;1.97;;;1.80;;
8464;SDS011;72380;52.680;13.606;2023-10-31T06:25:41;3.93;;;2.50;;
8464;SDS011;72380;52.680;13.606;2023-10-31T06:28:09;3.10;;;2.10;;
8464;SDS011;72380;52.680;13.606;2023-10-31T06:30:36;2.57;;;2.20;;
8464;SDS011;72380;52.680;13.606;2023-10-31T06:33:03;4.93;;;2.27;;
8464;SDS011;72380;52.680;13.606;2023-10-31T06:35:32;2.37;;;1.90;;
8464;SDS011;72380;52.680;13.606;2023-10-31T06:38:00;2.20;;;2.00;;
8464;SDS011;72380;52.680;13.606;2023-10-31T06:40:28;2.80;;;2.40;;
8464;SDS011;72380;52.680;13.606;2023-10-31T06:42:56;4.33;;;2.20;;
8464;SDS011;72380;52.680;13.606;2023-10-31T06:45:23;2.30;;;1.70;;
8464;SDS011;72380;52.680;13.606;2023-10-31T06:47:50;3.00;;;2.03;;
8464;SDS011;72380;52.680;13.606;2023-10-31T06:50:18;2.67;;;2.23;;
8464;SDS011;72380;52.680;13.606;2023-10-31T06:52:45;2.83;;;2.50;;
8464;SDS011;72380;52.680;13.606;2023-10-31T06:55:13;2.53;;;1.73;;
8464;SDS011;72380;52.680;13.606;2023-10-31T06:57:41;3.40;;;2.40;;
8464;SDS011;72380;52.680;13.606;2023-10-31T07:00:10;4.73;;;2.20;;
8464;SDS011;72380;52.680;13.606;2023-10-31T07:02:37;3.50;;;2.47;;
8464;SDS011;72380;52.680;13.606;2023-10-31T07:05:05;4.13;;;2.53;;
8464;SDS011;72380;52.680;13.606;2023-10-31T07:07:32;6.47;;;2.70;;
8464;SDS011;72380;52.680;13.606;2023-10-31T07:10:00;3.17;;;2.33;;
8464;SDS011;72380;52.680;13.606;2023-10-31T07:12:27;4.23;;;2.73;;
8464;SDS011;72380;52.680;13.606;2023-10-31T07:14:56;4.07;;;2.50;;
8464;SDS011;72380;52.680;13.606;2023-10-31T07:17:23;4.03;;;2.43;;
8464;SDS011;72380;52.680;13.606;2023-10-31T07:19:51;3.40;;;2.23;;
8464;SDS011;72380;52.680;13.606;2023-10-31T07:22:18;3.33;;;1.90;;
8464;SDS011;72380;52.680;13.606;2023-10-31T07:24:45;3.67;;;2.53;;
8464;SDS011;72380;52.680;13.606;2023-10-31T07:27:13;4.37;;;3.10;;
8464;SDS011;72380;52.680;13.606;2023-10-31T07:29:40;2.57;;;2.03;;
8464;SDS011;72380;52.680;13.606;2023-10-31T07:32:09;5.00;;;2.57;;
8464;SDS011;72380;52.680;13.606;2023-10-31T07:34:36;3.43;;;2.37;;
8464;SDS011;72380;52.680;13.606;2023-10-31T07:37:07;3.20;;;2.40;;
8464;SDS011;72380;52.680;13.606;2023-10-31T07:39:34;2.57;;;2.10;;
8464;SDS011;72380;52.680;13.606;2023-10-31T07:42:01;2.50;;;2.00;;
8464;SDS011;72380;52.680;13.606;2023-10-31T07:44:29;4.20;;;3.10;;
8464;SDS011;72380;52.680;13.606;2023-10-31T07:46:56;2.23;;;2.03;;
8464;SDS011;72380;52.680;13.606;2023-10-31T07:49:25;1.70;;;1.50;;
8464;SDS011;72380;52.680;13.606;2023-10-31T07:51:52;2.73;;;1.83;;
8464;SDS011;72380;52.680;13.606;2023-10-31T07:54:20;2.87;;;1.80;;
8464;SDS011;72380;52.680;13.606;2023-10-31T07:56:47;2.33;;;2.13;;
8464;SDS011;72380;52.680;13.606;2023-10-31T07:59:14;1.77;;;1.60;;
8464;SDS011;72380;52.680;13.606;2023-10-31T08:01:42;1.77;;;1.63;;
8464;SDS011;72380;52.680;13.606;2023-10-31T08:04:09;2.13;;;1.67;;
8464;SDS011;72380;52.680;13.606;2023-10-31T08:06:37;3.37;;;1.90;;
8464;SDS011;72380;52.680;13.606;2023-10-31T08:09:05;1.90;;;1.70;;
8464;SDS011;72380;52.680;13.606;2023-10-31T08:11:32;1.50;;;1.40;;
8464;SDS011;72380;52.680;13.606;2023-10-31T08:14:00;1.43;;;1.33;;
8464;SDS011;72380;52.680;13.606;2023-10-31T08:16:28;3.60;;;1.60;;
8464;SDS011;72380;52.680;13.606;2023-10-31T08:18:55;3.53;;;1.63;;
8464;SDS011;72380;52.680;13.606;2023-10-31T08:21:22;1.30;;;1.20;;
8464;SDS011;72380;52.680;13.606;2023-10-31T08:23:51;1.50;;;1.27;;
8464;SDS011;72380;52.680;13.606;2023-10-31T08:26:18;3.60;;;1.50;;
8464;SDS011;72380;52.680;13.606;2023-10-31T08:28:45;1.50;;;1.40;;
8464;SDS011;72380;52.680;13.606;2023-10-31T08:31:13;0.90;;;0.90;;
8464;SDS011;72380;52.680;13.606;2023-10-31T08:33:40;1.20;;;1.10;;
8464;SDS011;72380;52.680;13.606;2023-10-31T08:36:08;1.20;;;1.10;;
8464;SDS011;72380;52.680;13.606;2023-10-31T08:38:35;2.77;;;1.63;;
8464;SDS011;72380;52.680;13.606;2023-10-31T08:41:04;1.20;;;1.10;;
8464;SDS011;72380;52.680;13.606;2023-10-31T08:43:31;1.27;;;1.17;;
8464;SDS011;72380;52.680;13.606;2023-10-31T08:45:58;1.10;;;1.00;;
8464;SDS011;72380;52.680;13.606;2023-10-31T08:48:26;1.00;;;1.00;;
8464;SDS011;72380;52.680;13.606;2023-10-31T08:50:53;0.93;;;0.93;;
8464;SDS011;72380;52.680;13.606;2023-10-31T08:53:20;0.80;;;0.80;;
8464;SDS011;72380;52.680;13.606;2023-10-31T08:55:48;0.90;;;0.90;;
8464;SDS011;72380;52.680;13.606;2023-10-31T08:58:16;1.17;;;1.10;;
8464;SDS011;72380;52.680;13.606;2023-10-31T09:00:44;1.00;;;1.00;;
8464;SDS011;72380;52.680;13.606;2023-10-31T09:03:11;0.70;;;0.70;;
8464;SDS011;72380;52.680;13.606;2023-10-31T09:05:39;1.73;;;1.13;;
8464;SDS011;72380;52.680;13.606;2023-10-31T09:08:06;0.70;;;0.70;;
8464;SDS011;72380;52.680;13.606;2023-10-31T09:10:35;0.90;;;0.90;;
8464;SDS011;72380;52.680;13.606;2023-10-31T09:13:03;0.60;;;0.60;;
8464;SDS011;72380;52.680;13.606;2023-10-31T09:15:32;0.63;;;0.63;;
8464;SDS011;72380;52.680;13.606;2023-10-31T09:17:59;0.90;;;0.90;;
8464;SDS011;72380;52.680;13.606;2023-10-31T09:20:27;0.63;;;0.63;;
8464;SDS011;72380;52.680;13.606;2023-10-31T09:22:55;1.33;;;1.17;;
8464;SDS011;72380;52.680;13.606;2023-10-31T09:25:22;2.37;;;0.53;;
8464;SDS011;72380;52.680;13.606;2023-10-31T09:27:49;0.40;;;0.40;;
8464;SDS011;72380;52.680;13.606;2023-10-31T09:30:17;0.50;;;0.50;;
8464;SDS011;72380;52.680;13.606;2023-10-31T09:32:45;0.70;;;0.70;;
8464;SDS011;72380;52.680;13.606;2023-10-31T09:35:13;0.50;;;0.50;;
8464;SDS011;72380;52.680;13.606;2023-10-31T09:37:40;0.60;;;0.60;;
8464;SDS011;72380;52.680;13.606;2023-10-31T09:40:09;3.13;;;0.50;;
8464;SDS011;72380;52.680;13.606;2023-10-31T09:42:36;1.37;;;0.77;;
8464;SDS011;72380;52.680;13.606;2023-10-31T09:45:04;0.60;;;0.60;;
8464;SDS011;72380;52.680;13.606;2023-10-31T09:47:34;0.70;;;0.70;;
8464;SDS011;72380;52.680;13.606;2023-10-31T09:50:03;0.50;;;0.50;;
8464;SDS011;72380;52.680;13.606;2023-10-31T09:52:30;0.30;;;0.30;;
8464;SDS011;72380;52.680;13.606;2023-10-31T09:54:58;0.50;;;0.50;;
8464;SDS011;72380;52.680;13.606;2023-10-31T09:57:25;0.60;;;0.60;;
8464;SDS011;72380;52.680;13.606;2023-10-31T09:59:53;0.63;;;0.63;;
8464;SDS011;72380;52.680;13.606;2023-10-31T10:02:20;0.70;;;0.70;;
8464;SDS011;72380;52.680;13.606;2023-10-31T10:04:48;0.40;;;0.40;;
8464;SDS011;72380;52.680;13.606;2023-10-31T10:07:17;0.60;;;0.60;;
8464;SDS011;72380;52.680;13.606;2023-10-31T10:09:45;0.47;;;0.47;;
8464;SDS011;72380;52.680;13.606;2023-10-31T10:12:13;0.40;;;0.40;;
8464;SDS011;72380;52.680;13.606;2023-10-31T10:14:42;1.23;;;0.63;;
8464;SDS011;72380;52.680;13.606;2023-10-31T10:17:14;0.50;;;0.50;;
8464;SDS011;72380;52.680;13.606;2023-10-31T10:19:42;1.57;;;0.50;;
8464;SDS011;72380;52.680;13.606;2023-10-31T10:22:09;2.23;;;1.13;;
8464;SDS011;72380;52.680;13.606;2023-10-31T10:24:41;0.50;;;0.50;;
8464;SDS011;72380;52.680;13.606;2023-10-31T10:27:09;0.50;;;0.50;;
8464;SDS011;72380;52.680;13.606;2023-10-31T10:29:37;3.87;;;0.47;;
8464;SDS011;72380;52.680;13.606;2023-10-31T10:32:05;0.53;;;0.53;;
8464;SDS011;72380;52.680;13.606;2023-10-31T10:34:33;0.53;;;0.50;;
8464;SDS011;72380;52.680;13.606;2023-10-31T10:37:01;0.40;;;0.40;;
8464;SDS011;72380;52.680;13.606;2023-10-31T10:39:32;0.70;;;0.70;;
8464;SDS011;72380;52.680;13.606;2023-10-31T10:42:02;0.70;;;0.70;;
8464;SDS011;72380;52.680;13.606;2023-10-31T10:44:34;0.50;;;0.50;;
8464;SDS011;72380;52.680;13.606;2023-10-31T10:47:04;0.63;;;0.63;;
8464;SDS011;72380;52.680;13.606;2023-10-31T10:49:32;0.50;;;0.50;;
8464;SDS011;72380;52.680;13.606;2023-10-31T10:52:01;0.60;;;0.60;;
8464;SDS011;72380;52.680;13.606;2023-10-31T10:54:32;0.50;;;0.50;;
8464;SDS011;72380;52.680;13.606;2023-10-31T10:57:05;0.60;;;0.60;;
8464;SDS011;72380;52.680;13.606;2023-10-31T10:59:37;0.50;;;0.50;;
8464;SDS011;72380;52.680;13.606;2023-10-31T11:02:06;0.63;;;0.63;;
8464;SDS011;72380;52.680;13.606;2023-10-31T11:04:36;0.63;;;0.63;;
8464;SDS011;72380;52.680;13.606;2023-10-31T11:07:04;0.70;;;0.70;;
8464;SDS011;72380;52.680;13.606;2023-10-31T11:09:32;0.63;;;0.63;;
8464;SDS011;72380;52.680;13.606;2023-10-31T11:11:59;0.90;;;0.90;;
8464;SDS011;72380;52.680;13.606;2023-10-31T11:14:28;0.70;;;0.70;;
8464;SDS011;72380;52.680;13.606;2023-10-31T11:16:57;0.63;;;0.63;;
8464;SDS011;72380;52.680;13.606;2023-10-31T11:19:25;0.90;;;0.90;;
8464;SDS011;72380;52.680;13.606;2023-10-31T11:21:54;1.33;;;0.90;;
8464;SDS011;72380;52.680;13.606;2023-10-31T11:24:21;1.03;;;0.90;;
8464;SDS011;72380;52.680;13.606;2023-10-31T11:26:53;1.03;;;1.00;;
8464;SDS011;72380;52.680;13.606;2023-10-31T11:29:20;0.93;;;0.87;;
8464;SDS011;72380;52.680;13.606;2023-10-31T11:31:49;0.93;;;0.90;;
8464;SDS011;72380;52.680;13.606;2023-10-31T11:34:16;0.80;;;0.80;;
8464;SDS011;72380;52.680;13.606;2023-10-31T11:36:44;0.83;;;0.83;;
8464;SDS011;72380;52.680;13.606;2023-10-31T11:39:13;1.20;;;1.20;;
8464;SDS011;72380;52.680;13.606;2023-10-31T11:41:45;0.73;;;0.73;;
8464;SDS011;72380;52.680;13.606;2023-10-31T11:44:12;0.90;;;0.90;;
8464;SDS011;72380;52.680;13.606;2023-10-31T11:46:41;1.03;;;0.93;;
8464;SDS011;72380;52.680;13.606;2023-10-31T11:49:10;1.10;;;1.03;;
8464;SDS011;72380;52.680;13.606;2023-10-31T11:51:37;1.53;;;1.20;;
8464;SDS011;72380;52.680;13.606;2023-10-31T11:54:05;1.03;;;1.00;;
8464;SDS011;72380;52.680;13.606;2023-10-31T11:56:34;0.83;;;0.83;;
8464;SDS011;72380;52.680;13.606;2023-10-31T11:59:02;2.00;;;1.43;;
8464;SDS011;72380;52.680;13.606;2023-10-31T12:01:29;1.10;;;1.00;;
8464;SDS011;72380;52.680;13.606;2023-10-31T12:03:57;0.80;;;0.80;;
8464;SDS011;72380;52.680;13.606;2023-10-31T12:06:25;2.23;;;1.30;;
8464;SDS011;72380;52.680;13.606;2023-10-31T12:08:53;1.30;;;1.20;;
8464;SDS011;72380;52.680;13.606;2023-10-31T12:11:21;5.50;;;1.20;;
8464;SDS011;72380;52.680;13.606;2023-10-31T12:13:52;0.93;;;0.93;;
8464;SDS011;72380;52.680;13.606;2023-10-31T12:16:22;1.17;;;1.07;;
8464;SDS011;72380;52.680;13.606;2023-10-31T12:18:53;0.87;;;0.80;;
8464;SDS011;72380;52.680;13.606;2023-10-31T12:21:34;0.93;;;0.93;;
8464;SDS011;72380;52.680;13.606;2023-10-31T12:24:03;0.90;;;0.90;;
8464;SDS011;72380;52.680;13.606;2023-10-31T12:26:29;0.90;;;0.90;;
8464;SDS011;72380;52.680;13.606;2023-10-31T12:29:05;1.20;;;0.70;;
8464;SDS011;72380;52.680;13.606;2023-10-31T12:31:33;3.30;;;0.83;;
8464;SDS011;72380;52.680;13.606;2023-10-31T12:34:04;0.77;;;0.77;;
8464;SDS011;72380;52.680;13.606;2023-10-31T12:36:31;0.80;;;0.80;;
8464;SDS011;72380;52.680;13.606;2023-10-31T12:39:00;0.80;;;0.80;;
8464;SDS011;72380;52.680;13.606;2023-10-31T12:41:28;1.17;;;1.07;;
8464;SDS011;72380;52.680;13.606;2023-10-31T12:43:55;0.73;;;0.73;;
8464;SDS011;72380;52.680;13.606;2023-10-31T12:46:26;0.77;;;0.70;;
8464;SDS011;72380;52.680;13.606;2023-10-31T12:48:54;7.40;;;0.63;;
8464;SDS011;72380;52.680;13.606;2023-10-31T12:51:21;0.90;;;0.90;;
8464;SDS011;72380;52.680;13.606;2023-10-31T12:53:49;0.53;;;0.53;;
8464;SDS011;72380;52.680;13.606;2023-10-31T12:56:36;1.70;;;1.20;;
8464;SDS011;72380;52.680;13.606;2023-10-31T12:59:05;0.70;;;0.70;;
8464;SDS011;72380;52.680;13.606;2023-10-31T13:01:34;0.73;;;0.73;;
8464;SDS011;72380;52.680;13.606;2023-10-31T13:04:02;0.87;;;0.83;;
8464;SDS011;72380;52.680;13.606;2023-10-31T13:06:29;0.77;;;0.77;;
8464;SDS011;72380;52.680;13.606;2023-10-31T13:08:56;0.60;;;0.60;;
8464;SDS011;72380;52.680;13.606;2023-10-31T13:11:24;0.70;;;0.70;;
8464;SDS011;72380;52.680;13.606;2023-10-31T13:13:57;0.50;;;0.50;;
8464;SDS011;72380;52.680;13.606;2023-10-31T13:16:24;2.93;;;1.90;;
8464;SDS011;72380;52.680;13.606;2023-10-31T13:18:52;0.50;;;0.50;;
8464;SDS011;72380;52.680;13.606;2023-10-31T13:21:20;2.03;;;0.70;;
8464;SDS011;72380;52.680;13.606;2023-10-31T13:23:47;0.50;;;0.50;;
8464;SDS011;72380;52.680;13.606;2023-10-31T13:26:14;0.97;;;0.73;;
8464;SDS011;72380;52.680;13.606;2023-10-31T13:28:42;0.80;;;0.70;;
8464;SDS011;72380;52.680;13.606;2023-10-31T13:31:10;0.57;;;0.57;;
8464;SDS011;72380;52.680;13.606;2023-10-31T13:33:39;0.60;;;0.60;;
8464;SDS011;72380;52.680;13.606;2023-10-31T13:36:06;0.63;;;0.63;;
8464;SDS011;72380;52.680;13.606;2023-10-31T13:38:36;0.40;;;0.40;;
8464;SDS011;72380;52.680;13.606;2023-10-31T13:41:03;0.60;;;0.60;;
8464;SDS011;72380;52.680;13.606;2023-10-31T13:43:31;0.70;;;0.70;;
8464;SDS011;72380;52.680;13.606;2023-10-31T13:45:58;0.53;;;0.53;;
8464;SDS011;72380;52.680;13.606;2023-10-31T13:48:27;0.60;;;0.60;;
8464;SDS011;72380;52.680;13.606;2023-10-31T13:50:54;0.60;;;0.60;;
8464;SDS011;72380;52.680;13.606;2023-10-31T13:53:21;0.60;;;0.60;;
8464;SDS011;72380;52.680;13.606;2023-10-31T13:55:51;0.40;;;0.40;;
8464;SDS011;72380;52.680;13.606;2023-10-31T13:58:18;0.40;;;0.40;;
8464;SDS011;72380;52.680;13.606;2023-10-31T14:00:45;0.60;;;0.60;;
8464;SDS011;72380;52.680;13.606;2023-10-31T14:03:13;0.53;;;0.53;;
8464;SDS011;72380;52.680;13.606;2023-10-31T14:05:42;0.50;;;0.50;;
8464;SDS011;72380;52.680;13.606;2023-10-31T14:08:09;0.70;;;0.70;;
8464;SDS011;72380;52.680;13.606;2023-10-31T14:10:36;0.60;;;0.60;;
8464;SDS011;72380;52.680;13.606;2023-10-31T14:13:05;1.23;;;0.60;;
8464;SDS011;72380;52.680;13.606;2023-10-31T14:15:32;0.40;;;0.40;;
8464;SDS011;72380;52.680;13.606;2023-10-31T14:17:59;0.60;;;0.60;;
8464;SDS011;72380;52.680;13.606;2023-10-31T14:20:27;0.50;;;0.50;;
8464;SDS011;72380;52.680;13.606;2023-10-31T14:22:56;0.30;;;0.30;;
8464;SDS011;72380;52.680;13.606;2023-10-31T14:25:23;0.50;;;0.50;;
8464;SDS011;72380;52.680;13.606;2023-10-31T14:27:51;0.47;;;0.47;;
8464;SDS011;72380;52.680;13.606;2023-10-31T14:30:18;0.50;;;0.50;;
8464;SDS011;72380;52.680;13.606;2023-10-31T14:32:45;0.50;;;0.50;;
8464;SDS011;72380;52.680;13.606;2023-10-31T14:35:12;0.50;;;0.50;;
8464;SDS011;72380;52.680;13.606;2023-10-31T14:37:40;0.50;;;0.50;;
8464;SDS011;72380;52.680;13.606;2023-10-31T14:40:10;0.50;;;0.50;;
8464;SDS011;72380;52.680;13.606;2023-10-31T14:42:38;0.60;;;0.60;;
8464;SDS011;72380;52.680;13.606;2023-10-31T14:45:06;0.97;;;0.50;;
8464;SDS011;72380;52.680;13.606;2023-10-31T14:47:33;0.50;;;0.50;;
8464;SDS011;72380;52.680;13.606;2023-10-31T14:50:00;0.50;;;0.50;;
8464;SDS011;72380;52.680;13.606;2023-10-31T14:52:28;0.60;;;0.60;;